Time;durP1;ratioP1;P1;durP2;ratioP2;P2;SDS_P1;SDS_P2;PMS_P1;PMS_P2;Temp;Humidity;BMP_temperature;BMP_pressure;BME280_temperature;BME280_humidity;BME280_pressure;Samples;Min_cycle;Max_cycle;Signal;HPM_P1;HPM_P2
2022/12/21 00:01:51;;;;;;;0.20;0.20;;;7.40;99.90;;;;;;5009658;28;20721;-74
2022/12/21 00:04:17;;;;;;;0.20;0.20;;;7.40;99.90;;;;;;5007001;28;20227;-74
2022/12/21 00:06:42;;;;;;;0.20;0.20;;;7.40;99.90;;;;;;5002752;28;20242;-74
2022/12/21 00:09:11;;;;;;;0.20;0.20;;;7.40;99.90;;;;;;5005420;28;20192;-74
2022/12/21 00:11:37;;;;;;;0.20;0.20;;;7.40;99.90;;;;;;5009605;28;20227;-74
2022/12/21 00:14:04;;;;;;;0.20;0.20;;;7.40;99.90;;;;;;5007095;28;20946;-74
2022/12/21 00:16:34;;;;;;;0.20;0.20;;;7.40;99.90;;;;;;5004707;28;20597;-74
2022/12/21 00:19:00;;;;;;;0.20;0.20;;;7.30;99.90;;;;;;4997146;28;21137;-74
2022/12/21 00:21:28;;;;;;;0.20;0.20;;;7.20;99.90;;;;;;5006004;28;20438;-74
2022/12/21 00:23:58;;;;;;;0.20;0.20;;;7.30;99.90;;;;;;5007802;28;20463;-74
2022/12/21 00:26:24;;;;;;;0.20;0.20;;;7.20;99.90;;;;;;5004733;28;20448;-74
2022/12/21 00:28:53;;;;;;;0.20;0.20;;;7.20;99.90;;;;;;5005133;28;20957;-74
2022/12/21 00:31:23;;;;;;;0.20;0.20;;;7.30;99.90;;;;;;5006186;28;20450;-74
2022/12/21 00:33:49;;;;;;;0.20;0.20;;;7.20;99.90;;;;;;5008615;28;20478;-74
2022/12/21 00:36:18;;;;;;;0.20;0.20;;;7.20;99.90;;;;;;4996151;28;20951;-74
2022/12/21 00:38:46;;;;;;;0.20;0.20;;;7.20;99.90;;;;;;5003152;28;20451;-74
2022/12/21 00:41:14;;;;;;;0.20;0.20;;;7.10;99.90;;;;;;5006476;28;20442;-74
2022/12/21 00:43:42;;;;;;;0.20;0.20;;;7.20;99.90;;;;;;5004956;28;20504;-74
2022/12/21 00:46:14;;;;;;;0.20;0.20;;;7.20;99.90;;;;;;5006409;28;20490;-74
2022/12/21 00:48:39;;;;;;;0.20;0.20;;;7.20;99.90;;;;;;5007192;28;20458;-74
2022/12/21 00:51:07;;;;;;;0.20;0.20;;;7.10;99.90;;;;;;4998770;28;20455;-74
2022/12/21 00:53:33;;;;;;;0.20;0.20;;;7.20;99.90;;;;;;5008753;28;20679;-74
2022/12/21 00:56:02;;;;;;;0.20;0.20;;;7.20;99.90;;;;;;5009087;28;20454;-74
2022/12/21 00:58:29;;;;;;;0.20;0.20;;;7.20;99.90;;;;;;5002534;28;20526;-74
2022/12/21 01:00:57;;;;;;;0.20;0.20;;;7.10;99.90;;;;;;5004927;28;20447;-74
2022/12/21 01:03:23;;;;;;;0.20;0.20;;;7.10;99.90;;;;;;5009064;28;20658;-74
2022/12/21 01:05:51;;;;;;;0.20;0.20;;;7.10;99.90;;;;;;5003407;28;20483;-74
2022/12/21 01:08:17;;;;;;;0.20;0.20;;;7.10;99.90;;;;;;5003120;28;20986;-74
2022/12/21 01:10:43;;;;;;;0.20;0.20;;;7.10;99.90;;;;;;5009802;28;20451;-74
2022/12/21 01:13:11;;;;;;;0.20;0.20;;;7.10;99.90;;;;;;5003883;28;20577;-74
2022/12/21 01:15:44;;;;;;;0.20;0.20;;;7.10;99.90;;;;;;5006382;28;20973;-74
2022/12/21 01:18:10;;;;;;;0.27;0.27;;;7.00;99.90;;;;;;5009505;28;20489;-74
2022/12/21 01:20:44;;;;;;;0.20;0.20;;;7.10;99.90;;;;;;5007661;28;20512;-74
2022/12/21 01:23:10;;;;;;;0.20;0.20;;;7.10;99.90;;;;;;5002512;28;20473;-73
2022/12/21 01:25:35;;;;;;;0.20;0.20;;;7.10;99.90;;;;;;5007204;28;20479;-74
2022/12/21 01:28:01;;;;;;;0.20;0.20;;;7.00;99.90;;;;;;5006621;28;20184;-74
2022/12/21 01:30:27;;;;;;;0.20;0.20;;;7.10;99.90;;;;;;5007729;28;20188;-74
2022/12/21 01:32:52;;;;;;;0.20;0.20;;;7.10;99.90;;;;;;5008064;28;20637;-74
2022/12/21 01:35:19;;;;;;;0.20;0.20;;;7.10;99.90;;;;;;5008239;28;20854;-74
2022/12/21 01:37:44;;;;;;;0.20;0.20;;;7.00;99.90;;;;;;5006410;28;20192;-74
2022/12/21 01:40:11;;;;;;;0.30;0.30;;;7.00;99.90;;;;;;5009761;28;20427;-74
2022/12/21 01:42:36;;;;;;;0.20;0.20;;;7.00;99.90;;;;;;5006081;28;20188;-74
2022/12/21 01:45:20;;;;;;;0.20;0.20;;;7.00;99.90;;;;;;5006333;28;20478;-74
2022/12/21 01:48:05;;;;;;;0.20;0.20;;;7.00;99.90;;;;;;5007863;28;20200;-74
2022/12/21 01:51:02;;;;;;;0.20;0.20;;;6.90;99.90;;;;;;5008661;28;20461;-74
2022/12/21 01:53:36;;;;;;;0.20;0.20;;;6.80;99.90;;;;;;5010721;28;20458;-74
2022/12/21 01:56:05;;;;;;;0.20;0.20;;;6.90;99.90;;;;;;5013618;28;20442;-74
2022/12/21 01:58:31;;;;;;;0.20;0.20;;;6.90;99.90;;;;;;5011519;28;20821;-74
2022/12/21 02:00:59;;;;;;;0.20;0.20;;;6.70;99.90;;;;;;5011585;28;20868;-74
2022/12/21 02:03:29;;;;;;;0.20;0.20;;;6.80;99.90;;;;;;5011990;28;20423;-74
2022/12/21 02:06:04;;;;;;;0.30;0.30;;;6.80;99.90;;;;;;5011456;28;20498;-74
2022/12/21 02:08:29;;;;;;;0.20;0.20;;;6.90;99.90;;;;;;5010221;28;20442;-74
2022/12/21 02:10:56;;;;;;;0.20;0.20;;;6.80;99.90;;;;;;5010375;28;20879;-74
2022/12/21 02:13:22;;;;;;;0.30;0.30;;;6.80;99.90;;;;;;4998311;28;20188;-74
2022/12/21 02:15:59;;;;;;;0.30;0.30;;;6.80;99.90;;;;;;5001275;28;20483;-74
2022/12/21 02:19:02;;;;;;;0.30;0.30;;;6.60;99.90;;;;;;5022917;28;20227;-74
2022/12/21 02:21:29;;;;;;;0.30;0.30;;;6.60;99.90;;;;;;5010659;28;20447;-74
2022/12/21 02:24:46;;;;;;;0.30;0.30;;;6.70;99.90;;;;;;5007577;28;20449;-74
2022/12/21 02:27:58;;;;;;;0.20;0.20;;;6.70;99.90;;;;;;5004952;28;20825;-74
2022/12/21 02:30:47;;;;;;;0.20;0.20;;;6.60;99.90;;;;;;5008513;28;20439;-74
2022/12/21 02:33:52;;;;;;;0.30;0.30;;;6.70;99.90;;;;;;5007947;28;20928;-74
2022/12/21 02:36:35;;;;;;;0.20;0.20;;;6.70;99.90;;;;;;4998234;28;20447;-73
2022/12/21 02:39:35;;;;;;;0.30;0.30;;;6.60;99.90;;;;;;5008698;28;20443;-73
2022/12/21 02:45:23;;;;;;;0.20;0.20;;;6.60;99.90;;;;;;5006762;28;20493;-74
2022/12/21 02:48:04;;;;;;;0.30;0.30;;;6.70;99.90;;;;;;5009480;28;20488;-74
2022/12/21 02:50:37;;;;;;;0.30;0.30;;;6.70;99.90;;;;;;5011024;28;20446;-74
2022/12/21 02:53:16;;;;;;;0.30;0.30;;;6.70;99.90;;;;;;5005141;28;20451;-73
2022/12/21 02:55:45;;;;;;;0.30;0.30;;;6.60;99.90;;;;;;4997159;28;20444;-74
2022/12/21 02:58:22;;;;;;;0.30;0.30;;;6.70;99.90;;;;;;5004456;28;20447;-73
2022/12/21 03:00:50;;;;;;;0.20;0.20;;;6.60;99.90;;;;;;5006412;28;20481;-74
2022/12/21 03:03:48;;;;;;;0.20;0.20;;;6.70;99.90;;;;;;5009376;28;20554;-75
2022/12/21 03:06:30;;;;;;;0.30;0.30;;;6.60;99.90;;;;;;5006307;28;20950;-76
2022/12/21 03:09:35;;;;;;;0.20;0.20;;;6.60;99.90;;;;;;5007950;28;20529;-76
2022/12/21 03:12:13;;;;;;;0.20;0.20;;;6.60;99.90;;;;;;5006626;28;20453;-75
2022/12/21 03:14:51;;;;;;;0.30;0.30;;;6.60;99.90;;;;;;5008429;28;20463;-76
2022/12/21 03:17:44;;;;;;;0.30;0.30;;;6.60;99.90;;;;;;5022877;28;20462;-76
2022/12/21 03:20:28;;;;;;;0.20;0.20;;;6.60;99.90;;;;;;5007480;28;20455;-75
2022/12/21 03:23:17;;;;;;;0.20;0.20;;;6.60;99.90;;;;;;5001806;28;20435;-75
2022/12/21 03:26:16;;;;;;;0.20;0.20;;;6.60;99.90;;;;;;5009427;28;20487;-75
2022/12/21 03:28:44;;;;;;;0.30;0.30;;;6.60;99.90;;;;;;5004757;28;20469;-76
2022/12/21 03:31:15;;;;;;;0.20;0.20;;;6.50;99.90;;;;;;5007049;28;20537;-73
2022/12/21 03:33:47;;;;;;;0.20;0.20;;;6.50;99.90;;;;;;5008825;28;20447;-74
2022/12/21 03:36:19;;;;;;;0.30;0.30;;;6.50;99.90;;;;;;4996829;28;20439;-74
2022/12/21 03:38:57;;;;;;;0.20;0.20;;;6.50;99.90;;;;;;5006212;28;20451;-75
2022/12/21 03:41:32;;;;;;;0.30;0.30;;;6.50;99.90;;;;;;5005020;28;20471;-76
2022/12/21 03:44:01;;;;;;;0.30;0.30;;;6.50;99.90;;;;;;5007200;28;20920;-76
2022/12/21 03:46:45;;;;;;;0.30;0.30;;;6.50;99.90;;;;;;5008078;28;20946;-76
2022/12/21 03:49:20;;;;;;;0.30;0.30;;;6.50;99.90;;;;;;5008273;28;20486;-76
2022/12/21 03:51:56;;;;;;;0.20;0.20;;;6.50;99.90;;;;;;5008584;28;20450;-75
2022/12/21 03:54:38;;;;;;;0.20;0.20;;;6.40;99.90;;;;;;5005716;28;20533;-76
2022/12/21 03:57:06;;;;;;;0.20;0.20;;;6.40;99.90;;;;;;5003648;28;20460;-75
2022/12/21 03:59:32;;;;;;;0.20;0.20;;;6.40;99.90;;;;;;5004768;28;20442;-75
2022/12/21 04:02:14;;;;;;;0.23;0.23;;;6.40;99.90;;;;;;5008490;28;20439;-76
2022/12/21 04:05:07;;;;;;;0.20;0.20;;;6.40;99.90;;;;;;5004801;28;20517;-76
2022/12/21 04:07:34;;;;;;;0.30;0.30;;;6.40;99.90;;;;;;5003092;28;20451;-76
2022/12/21 04:10:03;;;;;;;0.20;0.20;;;6.40;99.90;;;;;;5009995;28;20485;-76
2022/12/21 04:12:38;;;;;;;0.30;0.30;;;6.30;99.90;;;;;;5007325;28;20466;-76
2022/12/21 04:15:19;;;;;;;0.30;0.30;;;6.40;99.90;;;;;;5008247;28;21034;-76
2022/12/21 04:17:47;;;;;;;0.20;0.20;;;6.30;99.90;;;;;;5003075;28;20513;-75
2022/12/21 04:20:16;;;;;;;0.30;0.30;;;6.30;99.90;;;;;;5004392;28;20447;-76
2022/12/21 04:28:23;;;;;;;0.20;0.20;;;6.30;99.90;;;;;;5006279;28;20454;-76
2022/12/21 04:30:49;;;;;;;0.30;0.30;;;6.30;99.90;;;;;;5010062;28;20504;-75
2022/12/21 04:33:17;;;;;;;0.30;0.30;;;6.20;99.90;;;;;;5005532;28;20994;-75
2022/12/21 04:38:29;;;;;;;0.30;0.30;;;6.20;99.90;;;;;;5009574;28;20542;-76
2022/12/21 04:40:56;;;;;;;0.30;0.30;;;6.20;99.90;;;;;;5009623;28;20462;-75
2022/12/21 04:43:22;;;;;;;0.30;0.30;;;6.10;99.90;;;;;;5005854;28;20592;-76
2022/12/21 04:45:48;;;;;;;0.30;0.30;;;6.20;99.90;;;;;;5024268;28;20483;-75
2022/12/21 04:48:15;;;;;;;0.27;0.27;;;6.20;99.90;;;;;;5009691;28;20508;-76
2022/12/21 04:50:42;;;;;;;0.30;0.30;;;6.10;99.90;;;;;;5009255;28;20176;-76
2022/12/21 04:53:08;;;;;;;0.30;0.30;;;6.20;99.90;;;;;;5002448;28;20443;-76
2022/12/21 04:55:34;;;;;;;0.30;0.30;;;6.00;99.90;;;;;;5010478;28;20930;-75
2022/12/21 04:57:59;;;;;;;0.20;0.20;;;6.10;99.90;;;;;;5003054;28;20447;-75
2022/12/21 05:00:25;;;;;;;0.30;0.30;;;6.00;99.90;;;;;;5003925;28;20208;-75
2022/12/21 05:02:50;;;;;;;0.23;0.23;;;5.90;99.90;;;;;;5008071;28;20215;-76
2022/12/21 05:05:16;;;;;;;0.30;0.30;;;5.90;99.90;;;;;;5009281;28;20574;-75
2022/12/21 05:07:42;;;;;;;0.20;0.20;;;5.90;99.90;;;;;;5003499;28;20214;-75
2022/12/21 05:10:09;;;;;;;0.20;0.20;;;5.80;99.90;;;;;;5009858;28;20801;-76
2022/12/21 05:12:35;;;;;;;0.30;0.30;;;5.80;99.90;;;;;;5007745;28;20192;-75
2022/12/21 05:15:00;;;;;;;0.30;0.30;;;5.80;99.90;;;;;;5008890;28;20900;-75
2022/12/21 05:17:26;;;;;;;0.30;0.30;;;5.80;99.90;;;;;;5008697;28;20219;-75
2022/12/21 05:19:51;;;;;;;0.30;0.30;;;5.80;99.90;;;;;;5009440;28;20184;-75
2022/12/21 05:22:20;;;;;;;0.30;0.30;;;5.80;99.90;;;;;;4999194;28;20239;-76
2022/12/21 05:24:45;;;;;;;0.30;0.30;;;5.80;99.90;;;;;;5005432;28;20208;-76
2022/12/21 05:27:12;;;;;;;0.30;0.30;;;5.80;99.90;;;;;;5008736;28;20485;-75
2022/12/21 05:29:37;;;;;;;0.30;0.30;;;5.80;99.90;;;;;;5005384;28;20184;-76
2022/12/21 05:32:04;;;;;;;0.30;0.30;;;5.70;99.90;;;;;;5008571;28;20506;-75
2022/12/21 05:34:29;;;;;;;0.27;0.27;;;5.70;99.90;;;;;;5012814;28;20930;-75
2022/12/21 05:36:55;;;;;;;0.30;0.30;;;5.70;99.90;;;;;;5006757;28;20451;-75
2022/12/21 05:39:20;;;;;;;0.30;0.30;;;5.70;99.90;;;;;;5004856;28;20251;-76
2022/12/21 05:41:46;;;;;;;0.30;0.30;;;5.70;99.90;;;;;;5007839;28;20196;-75
2022/12/21 05:44:11;;;;;;;0.20;0.20;;;5.70;99.90;;;;;;5012463;28;20649;-75
2022/12/21 05:46:37;;;;;;;0.27;0.27;;;5.70;99.90;;;;;;5011690;28;20184;-75
2022/12/21 05:49:02;;;;;;;0.30;0.30;;;5.70;99.90;;;;;;5005271;28;20188;-75
2022/12/21 05:51:28;;;;;;;0.30;0.30;;;5.70;99.90;;;;;;5003946;28;20672;-75
2022/12/21 05:53:54;;;;;;;0.30;0.30;;;5.60;99.90;;;;;;4997449;28;20268;-76
2022/12/21 05:56:19;;;;;;;0.30;0.30;;;5.70;99.90;;;;;;4996296;28;20743;-75
2022/12/21 05:58:45;;;;;;;0.30;0.30;;;5.70;99.90;;;;;;5005560;28;20197;-75
2022/12/21 06:01:12;;;;;;;0.20;0.20;;;5.60;99.90;;;;;;4995172;28;20264;-75
2022/12/21 06:03:38;;;;;;;0.30;0.30;;;5.60;99.90;;;;;;5006954;28;20961;-75
2022/12/21 06:06:05;;;;;;;0.30;0.30;;;5.60;99.90;;;;;;5000636;28;20482;-76
2022/12/21 06:08:31;;;;;;;0.30;0.30;;;5.50;99.90;;;;;;5004818;28;20435;-75
2022/12/21 06:11:01;;;;;;;0.20;0.20;;;5.50;99.90;;;;;;5009570;28;20452;-75
2022/12/21 06:13:27;;;;;;;0.30;0.30;;;5.50;99.90;;;;;;5001321;28;20191;-76
2022/12/21 06:15:52;;;;;;;0.30;0.30;;;5.60;99.90;;;;;;5008571;28;20490;-75
2022/12/21 06:18:18;;;;;;;0.20;0.20;;;5.50;99.90;;;;;;5012583;28;20615;-75
2022/12/21 06:20:50;;;;;;;0.30;0.30;;;5.50;99.90;;;;;;5006447;28;20189;-75
2022/12/21 06:23:16;;;;;;;0.23;0.23;;;5.60;99.90;;;;;;5007310;28;20186;-75
2022/12/21 06:25:41;;;;;;;0.30;0.30;;;5.60;99.90;;;;;;5012154;28;20497;-75
2022/12/21 06:28:07;;;;;;;0.30;0.30;;;5.60;99.90;;;;;;5008486;28;20189;-75
2022/12/21 06:30:33;;;;;;;0.30;0.30;;;5.60;99.90;;;;;;5005023;28;20188;-75
2022/12/21 06:32:58;;;;;;;0.30;0.30;;;5.50;99.90;;;;;;5004172;28;20188;-75
2022/12/21 06:35:24;;;;;;;0.23;0.23;;;5.50;99.90;;;;;;5010773;28;20593;-75
2022/12/21 06:37:50;;;;;;;0.20;0.20;;;5.40;99.90;;;;;;5013900;28;20184;-75
2022/12/21 06:40:15;;;;;;;0.30;0.30;;;5.40;99.90;;;;;;5008476;28;20271;-75
2022/12/21 06:42:41;;;;;;;0.30;0.30;;;5.50;99.90;;;;;;5006944;28;20289;-75
2022/12/21 06:45:06;;;;;;;0.30;0.30;;;5.50;99.90;;;;;;5011712;28;20228;-76
2022/12/21 06:47:32;;;;;;;0.30;0.30;;;5.40;99.90;;;;;;5026172;28;20416;-75
2022/12/21 06:49:58;;;;;;;0.30;0.30;;;5.40;99.90;;;;;;5009944;28;20271;-76
2022/12/21 06:52:24;;;;;;;0.30;0.30;;;5.40;99.90;;;;;;5008649;28;20176;-75
2022/12/21 06:54:49;;;;;;;0.30;0.30;;;5.40;99.90;;;;;;5009123;28;20958;-75
2022/12/21 06:57:15;;;;;;;0.20;0.20;;;5.40;99.90;;;;;;4996923;28;20275;-75
2022/12/21 06:59:41;;;;;;;0.30;0.30;;;5.40;99.90;;;;;;5009319;28;20231;-75
2022/12/21 07:02:09;;;;;;;0.27;0.27;;;5.50;99.90;;;;;;5002582;28;20223;-76
2022/12/21 07:04:35;;;;;;;0.30;0.30;;;5.50;99.90;;;;;;5023275;28;20227;-76
2022/12/21 07:07:01;;;;;;;0.30;0.30;;;5.40;99.90;;;;;;5009299;28;20471;-76
2022/12/21 07:09:27;;;;;;;0.20;0.20;;;5.40;99.90;;;;;;5007771;28;20203;-76
2022/12/21 07:11:52;;;;;;;0.30;0.30;;;5.40;99.90;;;;;;5007808;28;20470;-75
2022/12/21 07:14:18;;;;;;;0.30;0.30;;;5.40;99.90;;;;;;5008638;28;20486;-75
2022/12/21 07:16:45;;;;;;;0.30;0.30;;;5.40;99.90;;;;;;5011420;28;20196;-75
2022/12/21 07:19:11;;;;;;;0.30;0.30;;;5.40;99.90;;;;;;5009072;28;20455;-75
2022/12/21 07:21:37;;;;;;;0.30;0.30;;;5.40;99.90;;;;;;4999985;28;20475;-75
2022/12/21 07:24:03;;;;;;;0.30;0.30;;;5.30;99.90;;;;;;4996141;28;20239;-75
2022/12/21 07:26:28;;;;;;;0.30;0.30;;;5.30;99.90;;;;;;5011313;28;20389;-75
2022/12/21 07:28:55;;;;;;;0.30;0.30;;;5.30;99.90;;;;;;4999774;28;20817;-75
2022/12/21 07:31:23;;;;;;;0.30;0.30;;;5.30;99.90;;;;;;5019344;28;20662;-75
2022/12/21 07:33:49;;;;;;;0.30;0.30;;;5.30;99.90;;;;;;5009307;28;20443;-75
2022/12/21 07:36:16;;;;;;;0.30;0.30;;;5.20;99.90;;;;;;5006729;28;20948;-75
2022/12/21 07:38:44;;;;;;;0.30;0.30;;;5.20;99.90;;;;;;5010284;28;20886;-75
2022/12/21 07:41:13;;;;;;;0.30;0.30;;;5.30;99.90;;;;;;5008645;28;20455;-75
2022/12/21 07:43:39;;;;;;;0.30;0.30;;;5.30;99.90;;;;;;4998810;28;21015;-76
2022/12/21 07:46:05;;;;;;;0.30;0.30;;;5.30;99.90;;;;;;5003190;28;20628;-76
2022/12/21 07:48:31;;;;;;;0.30;0.30;;;5.40;99.90;;;;;;5005397;28;20443;-76
2022/12/21 07:50:56;;;;;;;0.30;0.30;;;5.40;99.90;;;;;;5007958;28;20827;-76
2022/12/21 07:53:22;;;;;;;0.30;0.30;;;5.20;99.90;;;;;;5002449;28;20196;-76
2022/12/21 07:55:48;;;;;;;0.30;0.30;;;5.20;99.90;;;;;;5011575;28;20184;-76
2022/12/21 07:58:13;;;;;;;0.30;0.30;;;5.30;99.90;;;;;;5004527;28;20973;-76
2022/12/21 08:00:40;;;;;;;0.30;0.30;;;5.30;99.90;;;;;;5003730;28;20219;-76
2022/12/21 08:03:06;;;;;;;0.30;0.30;;;5.30;99.90;;;;;;5006435;28;20644;-76
2022/12/21 08:05:32;;;;;;;0.20;0.20;;;5.30;99.90;;;;;;5007817;28;20490;-76
2022/12/21 08:07:58;;;;;;;0.30;0.30;;;5.30;99.90;;;;;;5005250;28;20862;-76
2022/12/21 08:10:24;;;;;;;0.30;0.30;;;5.30;99.90;;;;;;5010585;28;20192;-76
2022/12/21 08:12:50;;;;;;;0.30;0.30;;;5.30;99.90;;;;;;5008265;28;20501;-76
2022/12/21 08:15:15;;;;;;;0.30;0.30;;;5.20;99.90;;;;;;5006490;28;20720;-76
2022/12/21 08:17:41;;;;;;;0.30;0.30;;;5.20;99.90;;;;;;5000080;28;20211;-76
2022/12/21 08:20:07;;;;;;;0.30;0.30;;;5.20;99.90;;;;;;5000345;28;20216;-76
2022/12/21 08:22:33;;;;;;;0.30;0.30;;;5.20;99.90;;;;;;5001970;28;20209;-76
2022/12/21 08:24:58;;;;;;;0.30;0.30;;;5.30;99.90;;;;;;5008785;28;20517;-76
2022/12/21 08:27:24;;;;;;;0.30;0.30;;;5.20;99.90;;;;;;5001393;28;20962;-76
2022/12/21 08:29:49;;;;;;;0.20;0.20;;;5.30;99.90;;;;;;5004408;28;20183;-76
2022/12/21 08:32:15;;;;;;;0.30;0.30;;;5.20;99.90;;;;;;5005640;28;20644;-76
2022/12/21 08:34:41;;;;;;;0.30;0.30;;;5.30;99.90;;;;;;5005545;28;20180;-76
2022/12/21 08:37:06;;;;;;;0.27;0.27;;;5.30;99.90;;;;;;5004959;28;20540;-76
2022/12/21 08:39:32;;;;;;;0.30;0.30;;;5.30;99.90;;;;;;5007430;28;20214;-76
2022/12/21 08:41:57;;;;;;;0.20;0.20;;;5.30;99.90;;;;;;5008877;28;20280;-76
2022/12/21 08:44:23;;;;;;;0.30;0.30;;;5.30;99.90;;;;;;5008972;28;20271;-75
2022/12/21 08:46:48;;;;;;;0.30;0.30;;;5.30;99.90;;;;;;5006740;28;20234;-75
2022/12/21 08:49:14;;;;;;;0.30;0.30;;;5.20;99.90;;;;;;5007555;28;20188;-76
2022/12/21 08:51:40;;;;;;;0.30;0.30;;;5.20;99.90;;;;;;5008279;28;20191;-76
2022/12/21 08:54:06;;;;;;;0.30;0.30;;;5.20;99.90;;;;;;5002671;28;20263;-76
2022/12/21 08:56:32;;;;;;;0.30;0.30;;;5.10;99.90;;;;;;5009574;28;20187;-76
2022/12/21 08:59:07;;;;;;;0.40;0.40;;;5.10;99.90;;;;;;5006071;28;20450;-76
2022/12/21 09:01:33;;;;;;;0.30;0.30;;;5.20;99.90;;;;;;5003078;28;20930;-76
2022/12/21 09:03:59;;;;;;;0.30;0.30;;;5.20;99.90;;;;;;5006664;28;20447;-77
2022/12/21 09:06:25;;;;;;;0.30;0.30;;;5.30;99.90;;;;;;5003145;28;20485;-76
2022/12/21 09:08:51;;;;;;;0.30;0.30;;;5.30;99.90;;;;;;5002977;28;20443;-75
2022/12/21 09:11:19;;;;;;;0.30;0.30;;;5.20;99.90;;;;;;5005519;28;20211;-75
2022/12/21 09:13:45;;;;;;;0.30;0.30;;;5.20;99.90;;;;;;5004708;28;22003;-74
2022/12/21 09:16:21;;;;;;;0.30;0.30;;;5.20;99.90;;;;;;5006554;28;20537;-74
2022/12/21 09:18:47;;;;;;;0.30;0.30;;;5.10;99.90;;;;;;5008225;28;20950;-74
2022/12/21 09:21:15;;;;;;;0.30;0.30;;;5.10;99.90;;;;;;5002120;28;20459;-74
2022/12/21 09:23:41;;;;;;;0.30;0.30;;;5.00;99.90;;;;;;5008567;28;20427;-74
2022/12/21 09:26:07;;;;;;;0.20;0.20;;;5.10;99.90;;;;;;5005152;28;20478;-74
2022/12/21 09:28:34;;;;;;;0.30;0.30;;;5.10;99.90;;;;;;5003127;28;20443;-74
2022/12/21 09:31:11;;;;;;;0.30;0.30;;;5.10;99.90;;;;;;5002083;28;20447;-74
2022/12/21 09:33:38;;;;;;;0.30;0.30;;;5.10;99.90;;;;;;5003805;28;20474;-76
2022/12/21 09:36:05;;;;;;;0.40;0.40;;;5.00;99.90;;;;;;5003815;28;20514;-77
2022/12/21 09:38:31;;;;;;;0.30;0.30;;;5.00;99.90;;;;;;5006587;28;20497;-75
2022/12/21 09:41:22;;;;;;;0.30;0.30;;;5.10;99.90;;;;;;5005225;28;20439;-79
2022/12/21 09:44:26;;;;;;;0.27;0.27;;;5.10;99.90;;;;;;4968158;28;20200;-76
2022/12/21 09:46:55;;;;;;;0.20;0.20;;;5.20;99.90;;;;;;5006384;28;20458;-76
2022/12/21 09:49:34;;;;;;;0.30;0.30;;;5.20;99.90;;;;;;5005684;28;20489;-76
2022/12/21 09:52:05;;;;;;;0.30;0.30;;;5.20;99.90;;;;;;5001987;28;20528;-75
2022/12/21 09:54:38;;;;;;;0.30;0.30;;;5.30;99.90;;;;;;5003909;28;20449;-76
2022/12/21 09:57:05;;;;;;;0.27;0.27;;;5.30;99.90;;;;;;5007086;28;20475;-75
2022/12/21 09:59:31;;;;;;;0.30;0.30;;;5.40;99.90;;;;;;5004673;28;20439;-75
2022/12/21 10:02:22;;;;;;;0.30;0.30;;;5.40;99.90;;;;;;5004411;28;21091;-74
2022/12/21 10:05:14;;;;;;;0.30;0.30;;;5.40;99.90;;;;;;5004342;28;20259;-74
2022/12/21 10:08:21;;;;;;;0.30;0.30;;;5.40;99.90;;;;;;5006235;28;20461;-75
2022/12/21 10:11:08;;;;;;;0.30;0.30;;;5.50;99.90;;;;;;5001215;28;20454;-74
2022/12/21 10:14:29;;;;;;;0.20;0.20;;;5.60;99.90;;;;;;5002689;28;20512;-74
2022/12/21 10:17:06;;;;;;;0.30;0.30;;;5.60;99.90;;;;;;5003808;28;20474;-75
2022/12/21 10:19:50;;;;;;;0.30;0.30;;;5.60;99.90;;;;;;5008981;28;20442;-74
2022/12/21 10:22:25;;;;;;;0.30;0.30;;;5.70;99.90;;;;;;5004932;28;20454;-74
2022/12/21 10:24:57;;;;;;;0.30;0.30;;;5.70;99.90;;;;;;5007854;28;20474;-74
2022/12/21 10:27:39;;;;;;;0.30;0.30;;;5.70;99.90;;;;;;5006912;28;20497;-75
2022/12/21 10:30:06;;;;;;;0.20;0.20;;;5.70;99.90;;;;;;5008405;28;21193;-75
2022/12/21 10:32:34;;;;;;;0.30;0.30;;;5.60;99.90;;;;;;5001287;28;20868;-74
2022/12/21 10:35:16;;;;;;;0.20;0.20;;;5.60;99.90;;;;;;5003358;28;20824;-74
2022/12/21 10:37:42;;;;;;;0.20;0.20;;;5.70;99.90;;;;;;5002635;28;20497;-73
2022/12/21 10:40:11;;;;;;;0.30;0.30;;;5.80;99.90;;;;;;5020026;28;20437;-74
2022/12/21 10:42:39;;;;;;;0.30;0.30;;;5.80;99.90;;;;;;5007563;28;21021;-74
2022/12/21 10:45:10;;;;;;;0.30;0.30;;;5.90;99.90;;;;;;5008309;28;20479;-75
2022/12/21 10:47:37;;;;;;;0.30;0.30;;;6.00;99.90;;;;;;5010627;28;20435;-75
2022/12/21 10:50:13;;;;;;;0.30;0.30;;;5.90;99.90;;;;;;5009369;28;20455;-75
2022/12/21 10:52:48;;;;;;;0.20;0.20;;;5.90;99.90;;;;;;5009368;28;20450;-74
2022/12/21 10:55:19;;;;;;;0.20;0.20;;;5.90;99.90;;;;;;5009371;28;20448;-74
2022/12/21 10:57:47;;;;;;;0.30;0.30;;;5.90;99.90;;;;;;5007545;28;20969;-74
2022/12/21 11:00:35;;;;;;;0.30;0.30;;;5.80;99.90;;;;;;5006751;28;20451;-73
2022/12/21 11:03:06;;;;;;;0.30;0.30;;;5.80;99.90;;;;;;5005449;28;21173;-74
2022/12/21 11:05:41;;;;;;;0.23;0.23;;;5.80;99.90;;;;;;5005253;28;20574;-74
2022/12/21 11:08:18;;;;;;;0.30;0.30;;;5.80;99.90;;;;;;5005027;28;20832;-74
2022/12/21 11:10:47;;;;;;;0.23;0.23;;;5.80;99.90;;;;;;5008252;28;20447;-74
2022/12/21 11:13:14;;;;;;;0.30;0.30;;;5.80;99.90;;;;;;5009050;28;20447;-77
2022/12/21 11:15:55;;;;;;;0.30;0.30;;;5.80;99.90;;;;;;5002507;28;20979;-75
2022/12/21 11:18:26;;;;;;;0.20;0.20;;;5.80;99.90;;;;;;5009532;28;20451;-74
2022/12/21 11:20:52;;;;;;;0.20;0.20;;;5.80;99.90;;;;;;5002400;28;20440;-76
2022/12/21 11:23:18;;;;;;;0.30;0.30;;;5.90;99.90;;;;;;5002890;28;20507;-75
2022/12/21 11:25:44;;;;;;;0.30;0.30;;;5.80;99.90;;;;;;4999809;28;20937;-75
2022/12/21 11:28:10;;;;;;;0.30;0.30;;;5.90;99.90;;;;;;5004229;28;20232;-75
2022/12/21 11:30:35;;;;;;;0.23;0.23;;;5.70;99.90;;;;;;4999924;28;20243;-75
2022/12/21 11:33:02;;;;;;;0.20;0.20;;;5.70;99.90;;;;;;5004053;28;20447;-74
2022/12/21 11:35:34;;;;;;;0.20;0.20;;;5.70;99.90;;;;;;5003631;28;20279;-75
2022/12/21 11:38:11;;;;;;;0.30;0.30;;;5.70;99.90;;;;;;5001730;28;20550;-75
2022/12/21 11:40:37;;;;;;;0.30;0.30;;;5.80;99.90;;;;;;5000693;28;20442;-73
2022/12/21 11:43:06;;;;;;;0.30;0.30;;;5.70;99.90;;;;;;5000762;28;20447;-74
2022/12/21 11:45:50;;;;;;;0.20;0.20;;;5.70;99.90;;;;;;5005865;28;20577;-74
2022/12/21 11:48:52;;;;;;;0.30;0.30;;;5.80;99.90;;;;;;5001405;28;20443;-73
2022/12/21 11:51:37;;;;;;;0.30;0.30;;;5.70;99.90;;;;;;5003741;28;20478;-72
2022/12/21 11:54:38;;;;;;;0.30;0.30;;;5.70;99.90;;;;;;5003540;28;20446;-73
2022/12/21 11:57:20;;;;;;;0.20;0.20;;;5.70;99.90;;;;;;5005184;28;20501;-73
2022/12/21 12:00:05;;;;;;;0.30;0.30;;;5.60;99.90;;;;;;5008041;28;20458;-72
2022/12/21 12:02:49;;;;;;;0.30;0.30;;;5.70;99.90;;;;;;5006663;28;20447;-73
2022/12/21 12:05:35;;;;;;;0.30;0.30;;;5.80;99.90;;;;;;5006802;28;20486;-73
2022/12/21 12:08:19;;;;;;;0.20;0.20;;;5.70;99.90;;;;;;4993184;28;20439;-73
2022/12/21 12:11:05;;;;;;;0.30;0.30;;;5.70;99.90;;;;;;5008086;28;20457;-73
2022/12/21 12:13:40;;;;;;;0.30;0.30;;;5.80;99.90;;;;;;5004816;28;20858;-73
2022/12/21 12:16:24;;;;;;;0.23;0.23;;;5.60;99.90;;;;;;5008699;28;20842;-73
2022/12/21 12:19:06;;;;;;;0.30;0.30;;;5.60;99.90;;;;;;5003861;28;20483;-74
2022/12/21 12:21:51;;;;;;;0.30;0.30;;;5.60;99.90;;;;;;5010160;28;20532;-74
2022/12/21 12:24:29;;;;;;;0.30;0.30;;;5.60;99.90;;;;;;5006915;28;20961;-74
2022/12/21 12:27:05;;;;;;;0.30;0.30;;;5.70;99.90;;;;;;5006115;28;20475;-74
2022/12/21 12:30:13;;;;;;;0.20;0.20;;;5.60;99.90;;;;;;5008280;28;20474;-74
2022/12/21 12:32:58;;;;;;;0.20;0.20;;;5.60;99.90;;;;;;4998366;28;20442;-74
2022/12/21 12:35:29;;;;;;;0.20;0.20;;;5.50;99.90;;;;;;5009561;28;20457;-74
2022/12/21 12:38:22;;;;;;;0.30;0.30;;;5.60;99.90;;;;;;4998878;28;21005;-74
2022/12/21 12:41:41;;;;;;;0.30;0.30;;;5.60;99.90;;;;;;5003822;28;20459;-74
2022/12/21 12:44:23;;;;;;;0.20;0.20;;;5.60;99.90;;;;;;5008780;28;20505;-74
2022/12/21 12:47:08;;;;;;;0.30;0.30;;;5.60;99.90;;;;;;5004250;28;20493;-74
2022/12/21 12:50:04;;;;;;;0.30;0.30;;;5.70;99.90;;;;;;5004822;28;20424;-73
2022/12/21 12:52:30;;;;;;;0.30;0.30;;;5.70;99.90;;;;;;4997121;28;20826;-73
2022/12/21 12:55:18;;;;;;;0.30;0.30;;;5.60;99.90;;;;;;5006410;28;20445;-74
2022/12/21 12:57:59;;;;;;;0.30;0.30;;;5.50;99.90;;;;;;5008773;28;20204;-73
2022/12/21 13:00:28;;;;;;;0.30;0.30;;;5.50;99.90;;;;;;5008126;28;20524;-74
2022/12/21 13:03:19;;;;;;;0.30;0.30;;;5.50;99.90;;;;;;5005079;28;20842;-72
2022/12/21 13:06:03;;;;;;;0.30;0.30;;;5.50;99.90;;;;;;5008513;28;21160;-73
2022/12/21 13:09:16;;;;;;;0.20;0.20;;;5.60;99.90;;;;;;5008524;28;20439;-73
2022/12/21 13:11:48;;;;;;;0.30;0.30;;;5.60;99.90;;;;;;5006464;28;20534;-74
2022/12/21 13:14:33;;;;;;;0.30;0.30;;;5.60;99.90;;;;;;5010458;28;20482;-73
2022/12/21 13:17:07;;;;;;;0.30;0.30;;;5.60;99.90;;;;;;5010150;28;20957;-73
2022/12/21 13:19:33;;;;;;;0.30;0.30;;;5.50;99.90;;;;;;5008741;28;20473;-74
2022/12/21 13:22:03;;;;;;;0.30;0.30;;;5.50;99.90;;;;;;5008375;28;20454;-73
2022/12/21 13:24:46;;;;;;;0.30;0.30;;;5.40;99.90;;;;;;5010576;28;21014;-73
2022/12/21 13:27:23;;;;;;;0.30;0.30;;;5.50;99.90;;;;;;4997504;28;20850;-74
2022/12/21 13:30:00;;;;;;;0.30;0.30;;;5.50;99.90;;;;;;5007755;28;20442;-73
2022/12/21 13:32:29;;;;;;;0.30;0.30;;;5.50;99.90;;;;;;5005276;28;20541;-73
2022/12/21 13:35:04;;;;;;;0.30;0.30;;;5.50;99.90;;;;;;5009790;28;21036;-73
2022/12/21 13:37:30;;;;;;;0.30;0.30;;;5.50;99.90;;;;;;5006183;28;20461;-74